Time;durP1;ratioP1;P1;durP2;ratioP2;P2;SDS_P1;SDS_P2;PMS_P1;PMS_P2;Temp;Humidity;BMP_temperature;BMP_pressure;BME280_temperature;BME280_humidity;BME280_pressure;Samples;Min_cycle;Max_cycle;Signal;HPM_P1;HPM_P2
2021/07/08 00:00:37;;;;;;;8.68;6.42;;;24.00;78.50;;;;;;1935582;74;21112;-49
2021/07/08 00:03:07;;;;;;;12.82;6.62;;;24.00;78.60;;;;;;1935037;74;21109;-48
2021/07/08 00:05:40;;;;;;;10.00;6.28;;;24.00;78.70;;;;;;1935567;74;21087;-50
2021/07/08 00:08:11;;;;;;;9.30;6.23;;;23.90;78.70;;;;;;1935977;74;20995;-51
2021/07/08 00:10:44;;;;;;;9.50;6.22;;;23.90;78.90;;;;;;1935480;74;21719;-50
2021/07/08 00:13:15;;;;;;;9.45;5.80;;;23.90;79.00;;;;;;1935625;74;21067;-51
2021/07/08 00:15:45;;;;;;;9.03;6.00;;;23.90;79.10;;;;;;1935559;74;21063;-51
2021/07/08 00:18:15;;;;;;;7.75;6.05;;;23.80;79.20;;;;;;1935684;74;21127;-48
2021/07/08 00:20:46;;;;;;;12.70;6.17;;;23.80;79.30;;;;;;1935598;74;21207;-51
2021/07/08 00:23:16;;;;;;;6.70;5.70;;;23.80;79.30;;;;;;1935800;74;21065;-48
2021/07/08 00:25:47;;;;;;;8.95;5.97;;;23.80;79.30;;;;;;1935644;74;21027;-49
2021/07/08 00:28:16;;;;;;;11.73;6.20;;;23.80;79.30;;;;;;1935647;74;21007;-50
2021/07/08 00:30:48;;;;;;;8.60;6.62;;;23.80;79.30;;;;;;1935537;74;21046;-49
2021/07/08 00:33:19;;;;;;;10.72;6.12;;;23.90;79.20;;;;;;1935787;74;21519;-50
2021/07/08 00:35:50;;;;;;;11.25;6.17;;;23.90;79.20;;;;;;1935626;74;21097;-48
2021/07/08 00:38:19;;;;;;;10.25;5.92;;;23.90;79.20;;;;;;1935667;74;21028;-51
2021/07/08 00:40:49;;;;;;;7.95;6.08;;;23.80;79.20;;;;;;1935742;74;21035;-48
2021/07/08 00:43:19;;;;;;;9.23;6.33;;;23.80;79.20;;;;;;1935761;74;21023;-51
2021/07/08 00:45:48;;;;;;;10.88;6.30;;;23.80;79.30;;;;;;1935651;74;21024;-50
2021/07/08 00:48:18;;;;;;;14.23;7.22;;;23.80;79.40;;;;;;1935749;74;20995;-50
2021/07/08 00:50:47;;;;;;;7.35;6.10;;;23.80;79.20;;;;;;1935900;74;21105;-51
2021/07/08 00:53:19;;;;;;;8.78;6.35;;;23.70;79.30;;;;;;1935816;74;21015;-50
2021/07/08 00:56:00;;;;;;;12.03;6.67;;;23.70;79.40;;;;;;1935768;74;20999;-50
2021/07/08 00:58:30;;;;;;;12.15;6.87;;;23.70;79.50;;;;;;1935731;74;21023;-49
2021/07/08 01:01:02;;;;;;;12.98;7.25;;;23.70;79.40;;;;;;1935625;74;21023;-51
2021/07/08 01:03:32;;;;;;;11.38;7.78;;;23.70;79.30;;;;;;1935773;74;21457;-50
2021/07/08 01:06:02;;;;;;;14.38;7.37;;;23.70;79.20;;;;;;1935677;74;21039;-49
2021/07/08 01:08:32;;;;;;;8.93;6.37;;;23.60;79.20;;;;;;1935560;74;21011;-47
2021/07/08 01:11:01;;;;;;;9.63;6.85;;;23.60;79.40;;;;;;1935623;74;21059;-51
2021/07/08 01:13:31;;;;;;;13.78;7.30;;;23.60;79.40;;;;;;1935571;74;21016;-50
2021/07/08 01:16:00;;;;;;;16.52;9.23;;;23.60;79.30;;;;;;1935676;74;21043;-50
2021/07/08 01:18:30;;;;;;;13.88;8.53;;;23.50;79.10;;;;;;1935672;74;21077;-49
2021/07/08 01:21:02;;;;;;;13.28;7.65;;;23.40;79.10;;;;;;1935595;74;21114;-51
2021/07/08 01:23:31;;;;;;;12.40;8.35;;;23.40;79.40;;;;;;1929276;74;21501;-50
2021/07/08 01:26:01;;;;;;;11.12;7.10;;;23.40;79.60;;;;;;1935724;74;21039;-50
2021/07/08 01:28:30;;;;;;;9.33;7.05;;;23.40;79.70;;;;;;1935645;74;21019;-48
2021/07/08 01:31:00;;;;;;;11.93;6.90;;;23.40;79.80;;;;;;1935581;74;21085;-49
2021/07/08 01:33:30;;;;;;;13.15;7.20;;;23.40;79.90;;;;;;1935622;74;21019;-50
2021/07/08 01:35:59;;;;;;;21.85;9.25;;;23.40;79.80;;;;;;1935619;74;21097;-48
2021/07/08 01:38:29;;;;;;;10.50;7.47;;;23.40;79.70;;;;;;1935673;74;21088;-48
2021/07/08 01:40:58;;;;;;;9.60;8.13;;;23.40;79.60;;;;;;1935622;74;20999;-50
2021/07/08 01:43:28;;;;;;;13.05;7.62;;;23.40;79.60;;;;;;1935619;74;21090;-48
2021/07/08 01:45:58;;;;;;;14.43;8.43;;;23.40;79.50;;;;;;1935812;74;20999;-48
2021/07/08 01:48:27;;;;;;;14.20;9.85;;;23.30;79.60;;;;;;1935584;74;21109;-50
2021/07/08 01:50:57;;;;;;;12.45;8.90;;;23.20;79.80;;;;;;1935658;74;21011;-50
2021/07/08 01:53:26;;;;;;;13.98;9.20;;;23.20;79.80;;;;;;1935593;74;21003;-50
2021/07/08 01:55:57;;;;;;;15.35;9.00;;;23.20;80.00;;;;;;1935617;74;21023;-48
2021/07/08 01:58:26;;;;;;;18.37;9.10;;;23.20;80.20;;;;;;1935687;74;21081;-48
2021/07/08 02:00:56;;;;;;;12.68;9.15;;;23.20;80.20;;;;;;1935689;74;21086;-48
2021/07/08 02:03:25;;;;;;;13.32;8.53;;;23.20;80.50;;;;;;1935719;74;21031;-49
2021/07/08 02:05:54;;;;;;;11.78;8.85;;;23.20;80.50;;;;;;1935602;74;21011;-50
2021/07/08 02:08:24;;;;;;;16.77;9.85;;;23.20;80.50;;;;;;1935730;74;20991;-49
2021/07/08 02:10:53;;;;;;;18.98;10.93;;;23.20;80.40;;;;;;1935753;74;21530;-50
2021/07/08 02:13:22;;;;;;;14.65;8.10;;;23.20;80.20;;;;;;1935763;74;21023;-49
2021/07/08 02:15:52;;;;;;;17.00;8.73;;;23.20;80.40;;;;;;1946032;74;21034;-48
2021/07/08 02:18:21;;;;;;;26.12;9.13;;;23.20;80.40;;;;;;1948847;73;21092;-48
2021/07/08 02:20:51;;;;;;;16.97;8.15;;;23.20;80.50;;;;;;1948900;74;21042;-48
2021/07/08 02:23:21;;;;;;;13.93;8.68;;;23.20;80.50;;;;;;1948787;74;21106;-48
2021/07/08 02:25:50;;;;;;;17.10;10.10;;;23.20;80.60;;;;;;1948759;74;21030;-49
2021/07/08 02:28:19;;;;;;;12.33;8.45;;;23.20;80.50;;;;;;1948803;74;21023;-51
2021/07/08 02:30:48;;;;;;;30.88;11.33;;;23.30;80.60;;;;;;1948695;73;21080;-49
2021/07/08 02:33:18;;;;;;;27.75;12.07;;;23.30;80.50;;;;;;1948790;74;21038;-51
2021/07/08 02:35:47;;;;;;;17.32;10.35;;;23.30;80.30;;;;;;1948693;74;21084;-51
2021/07/08 02:38:17;;;;;;;19.40;8.88;;;23.30;80.30;;;;;;1948791;73;21035;-50
2021/07/08 02:40:46;;;;;;;11.03;8.25;;;23.30;80.50;;;;;;1948871;74;21034;-51
2021/07/08 02:43:16;;;;;;;18.37;8.80;;;23.30;80.70;;;;;;1948655;74;21090;-49
2021/07/08 02:45:46;;;;;;;16.37;9.15;;;23.30;80.70;;;;;;1948781;74;21077;-51
2021/07/08 02:48:18;;;;;;;14.43;9.08;;;23.30;80.70;;;;;;1948654;74;21077;-50
2021/07/08 02:50:50;;;;;;;13.45;8.93;;;23.30;80.60;;;;;;1948724;74;21015;-50
2021/07/08 02:53:20;;;;;;;21.12;9.68;;;23.30;80.50;;;;;;1948777;74;21042;-51
2021/07/08 02:55:50;;;;;;;12.07;8.08;;;23.40;80.40;;;;;;1948659;74;21026;-49
2021/07/08 02:58:20;;;;;;;14.33;8.63;;;23.40;80.40;;;;;;1948773;74;21014;-51
2021/07/08 03:00:50;;;;;;;16.65;8.90;;;23.40;80.30;;;;;;1948630;74;21014;-51
2021/07/08 03:03:20;;;;;;;15.58;9.20;;;23.40;80.30;;;;;;1948938;74;21014;-51
2021/07/08 03:05:49;;;;;;;17.87;11.03;;;23.50;80.30;;;;;;1948910;74;21015;-49
2021/07/08 03:08:18;;;;;;;17.40;10.08;;;23.40;80.10;;;;;;1948787;73;21080;-52
2021/07/08 03:10:48;;;;;;;19.35;9.80;;;23.40;80.10;;;;;;1948676;74;21086;-51
2021/07/08 03:13:17;;;;;;;21.05;11.93;;;23.40;80.20;;;;;;1948859;73;20990;-52
2021/07/08 03:15:47;;;;;;;24.60;10.70;;;23.40;80.30;;;;;;1942434;74;21117;-52
2021/07/08 03:18:16;;;;;;;17.95;10.40;;;23.50;80.20;;;;;;1935739;74;21023;-49
2021/07/08 03:20:46;;;;;;;21.85;10.60;;;23.50;80.20;;;;;;1935641;74;21120;-51
2021/07/08 03:23:15;;;;;;;16.60;11.68;;;23.50;80.00;;;;;;1935571;74;21493;-50
2021/07/08 03:25:45;;;;;;;34.25;12.50;;;23.40;80.00;;;;;;1935606;74;21152;-50
2021/07/08 03:28:14;;;;;;;21.80;13.13;;;23.40;80.00;;;;;;1935684;74;21441;-52
2021/07/08 03:30:44;;;;;;;27.42;19.65;;;23.30;80.20;;;;;;1935619;74;21043;-48
2021/07/08 03:33:13;;;;;;;18.87;11.45;;;23.20;80.40;;;;;;1935504;74;21087;-51
2021/07/08 03:35:43;;;;;;;18.42;11.85;;;23.20;80.70;;;;;;1935703;74;21015;-50
2021/07/08 03:38:12;;;;;;;16.20;10.88;;;23.20;80.90;;;;;;1935676;74;21081;-49
2021/07/08 03:40:42;;;;;;;21.37;11.18;;;23.10;81.10;;;;;;1935560;74;21015;-49
2021/07/08 03:43:11;;;;;;;18.82;9.38;;;23.20;81.30;;;;;;1935643;74;21015;-48
2021/07/08 03:45:41;;;;;;;34.90;11.55;;;23.10;81.50;;;;;;1935571;74;21000;-49
2021/07/08 03:48:10;;;;;;;15.05;10.30;;;23.10;81.70;;;;;;1935546;74;21019;-49
2021/07/08 03:50:40;;;;;;;14.28;10.20;;;23.00;81.90;;;;;;1935622;74;21015;-49
2021/07/08 03:53:09;;;;;;;11.97;9.83;;;23.00;82.30;;;;;;1935535;74;21015;-48
2021/07/08 03:55:39;;;;;;;13.28;10.50;;;23.20;82.30;;;;;;1935641;74;21019;-49
2021/07/08 03:58:08;;;;;;;24.77;10.60;;;23.20;82.10;;;;;;1935654;74;21438;-51
2021/07/08 04:00:40;;;;;;;21.45;12.20;;;23.20;82.10;;;;;;1935539;74;21093;-49
2021/07/08 04:03:12;;;;;;;17.92;12.28;;;23.10;82.10;;;;;;1935602;74;21027;-51
2021/07/08 04:05:42;;;;;;;40.85;27.45;;;23.10;82.20;;;;;;1935604;74;21457;-49
2021/07/08 04:08:12;;;;;;;26.62;17.50;;;23.10;82.30;;;;;;1935599;74;21097;-52
2021/07/08 04:10:42;;;;;;;27.40;19.75;;;23.20;82.60;;;;;;1935456;74;21073;-51
2021/07/08 04:13:17;;;;;;;18.82;13.00;;;23.30;82.40;;;;;;1935598;74;21023;-49
2021/07/08 04:15:47;;;;;;;24.92;16.02;;;23.40;82.40;;;;;;1938612;74;21055;-51
2021/07/08 04:18:18;;;;;;;29.90;14.93;;;23.50;82.20;;;;;;1948683;74;21151;-49
2021/07/08 04:20:48;;;;;;;18.52;10.55;;;23.70;82.10;;;;;;1948627;73;20991;-49
2021/07/08 04:23:17;;;;;;;34.23;16.40;;;23.70;81.60;;;;;;1948721;73;21088;-50
2021/07/08 04:25:47;;;;;;;15.45;11.85;;;23.80;81.30;;;;;;1948837;73;20995;-49
2021/07/08 04:28:17;;;;;;;29.60;12.50;;;23.80;81.20;;;;;;1948769;74;21489;-48
2021/07/08 04:30:46;;;;;;;14.50;10.68;;;23.90;81.40;;;;;;1948743;73;21121;-48
2021/07/08 04:33:17;;;;;;;20.23;11.73;;;23.90;81.50;;;;;;1948673;73;21144;-52
2021/07/08 04:35:46;;;;;;;14.10;10.82;;;24.10;81.20;;;;;;1948677;73;21074;-48
2021/07/08 04:38:16;;;;;;;16.05;11.75;;;24.20;80.80;;;;;;1948729;74;21100;-48
2021/07/08 04:40:46;;;;;;;13.18;10.30;;;24.30;80.70;;;;;;1948765;73;21085;-49
2021/07/08 04:43:15;;;;;;;13.85;11.35;;;24.40;80.20;;;;;;1948733;73;21085;-48
2021/07/08 04:45:45;;;;;;;12.80;11.50;;;24.40;80.00;;;;;;1948746;74;21039;-51
2021/07/08 04:48:14;;;;;;;12.73;11.38;;;24.40;79.90;;;;;;1948859;74;21019;-50
2021/07/08 04:50:44;;;;;;;15.55;10.85;;;24.40;79.80;;;;;;1948778;74;21461;-50
2021/07/08 04:53:17;;;;;;;11.35;9.45;;;24.50;79.70;;;;;;1948680;74;21011;-49
2021/07/08 04:55:47;;;;;;;11.60;8.15;;;24.50;79.70;;;;;;1948688;73;21105;-49
2021/07/08 04:58:16;;;;;;;10.08;8.93;;;24.50;79.90;;;;;;1948728;74;21074;-48
2021/07/08 05:00:46;;;;;;;20.77;9.60;;;24.60;79.70;;;;;;1948619;73;21019;-49
2021/07/08 05:03:16;;;;;;;10.05;8.48;;;24.70;79.40;;;;;;1948867;74;21096;-48
2021/07/08 05:05:47;;;;;;;8.10;7.30;;;24.80;79.00;;;;;;1947433;74;21548;-52
2021/07/08 05:08:16;;;;;;;9.88;7.65;;;24.90;78.50;;;;;;1948680;74;21149;-48
2021/07/08 05:10:46;;;;;;;14.78;7.90;;;25.00;78.00;;;;;;1948560;74;21054;-51
2021/07/08 05:13:15;;;;;;;10.50;8.53;;;24.90;77.60;;;;;;1948743;74;21027;-51
2021/07/08 05:15:44;;;;;;;15.68;8.10;;;24.90;78.00;;;;;;1948705;74;21019;-51
2021/07/08 05:18:14;;;;;;;11.12;7.35;;;25.00;77.70;;;;;;1943152;73;21489;-49
2021/07/08 05:20:44;;;;;;;9.53;7.50;;;25.00;78.30;;;;;;1943063;74;21011;-49
2021/07/08 05:23:24;;;;;;;10.95;7.05;;;25.10;77.60;;;;;;1943081;73;21100;-52
2021/07/08 05:25:51;;;;;;;7.40;6.17;;;25.10;77.20;;;;;;1942502;74;21051;-49
2021/07/08 05:28:20;;;;;;;10.45;6.40;;;25.20;77.10;;;;;;1943162;74;21076;-48
2021/07/08 05:30:50;;;;;;;9.50;6.45;;;25.30;77.10;;;;;;1943005;74;20991;-48
2021/07/08 05:33:20;;;;;;;7.80;6.53;;;25.40;76.80;;;;;;1943010;74;21015;-51
2021/07/08 05:35:49;;;;;;;9.23;6.00;;;25.50;76.20;;;;;;1943047;74;21539;-50
2021/07/08 05:38:19;;;;;;;10.82;6.15;;;25.60;76.00;;;;;;1943119;74;21023;-51
2021/07/08 05:40:48;;;;;;;7.50;5.50;;;25.70;76.10;;;;;;1943070;74;21104;-49
2021/07/08 05:43:18;;;;;;;8.35;5.78;;;25.80;75.90;;;;;;1943046;74;21100;-51
2021/07/08 05:45:47;;;;;;;9.20;5.35;;;25.90;75.20;;;;;;1943072;73;21133;-50
2021/07/08 05:48:16;;;;;;;8.15;4.85;;;26.00;74.60;;;;;;1942946;73;21144;-51
2021/07/08 05:50:45;;;;;;;6.55;5.08;;;26.00;74.40;;;;;;1942988;74;21019;-51
2021/07/08 05:53:15;;;;;;;9.23;4.97;;;26.20;74.40;;;;;;1943093;74;20999;-51
2021/07/08 05:55:44;;;;;;;9.95;5.25;;;26.30;73.80;;;;;;1942979;74;21069;-51
2021/07/08 05:58:13;;;;;;;8.90;4.92;;;26.40;73.40;;;;;;1943013;74;21035;-50
2021/07/08 06:00:43;;;;;;;9.40;4.85;;;26.50;73.10;;;;;;1943067;74;21096;-49
2021/07/08 06:03:12;;;;;;;7.33;5.12;;;26.50;72.70;;;;;;1942944;74;21080;-50
2021/07/08 06:05:41;;;;;;;9.00;5.00;;;26.60;72.20;;;;;;1943195;74;21031;-50
2021/07/08 06:08:11;;;;;;;12.85;5.78;;;26.70;71.80;;;;;;1943161;74;21067;-51
2021/07/08 06:10:44;;;;;;;6.50;5.03;;;26.90;71.20;;;;;;1943170;74;21019;-52
2021/07/08 06:13:13;;;;;;;8.08;4.62;;;26.90;70.90;;;;;;1943197;73;21016;-48
2021/07/08 06:15:42;;;;;;;7.35;4.70;;;27.00;70.90;;;;;;1943085;74;21019;-51
2021/07/08 06:18:11;;;;;;;6.80;5.60;;;27.10;70.00;;;;;;1942987;73;21575;-50
2021/07/08 06:20:41;;;;;;;7.10;4.33;;;27.10;69.60;;;;;;1943146;74;21015;-51
2021/07/08 06:23:10;;;;;;;5.30;4.83;;;27.00;69.50;;;;;;1943187;73;21011;-49
2021/07/08 06:25:39;;;;;;;8.60;5.03;;;27.10;69.00;;;;;;1943210;73;21084;-49
2021/07/08 06:28:08;;;;;;;7.40;4.28;;;27.00;69.20;;;;;;1943094;73;21019;-52
2021/07/08 06:30:38;;;;;;;9.10;4.72;;;27.00;69.10;;;;;;1943138;74;21019;-52
2021/07/08 06:33:07;;;;;;;5.65;4.72;;;27.20;68.80;;;;;;1943153;74;21074;-52
2021/07/08 06:35:36;;;;;;;5.90;4.17;;;27.20;68.40;;;;;;1943086;74;21023;-50
2021/07/08 06:38:05;;;;;;;6.17;4.50;;;27.20;68.10;;;;;;1943003;74;21011;-49
2021/07/08 06:40:35;;;;;;;6.75;4.60;;;27.30;68.10;;;;;;1943110;74;21039;-48
2021/07/08 06:43:04;;;;;;;6.17;4.33;;;27.30;68.30;;;;;;1943048;74;21003;-50
2021/07/08 06:45:36;;;;;;;4.15;3.72;;;27.40;67.50;;;;;;1943008;74;21046;-52
2021/07/08 06:48:09;;;;;;;5.28;3.77;;;27.50;66.00;;;;;;1943195;74;21031;-51
2021/07/08 06:50:39;;;;;;;7.42;3.83;;;27.60;65.20;;;;;;1943279;74;21086;-51
2021/07/08 06:53:08;;;;;;;6.83;4.62;;;27.60;65.50;;;;;;1943101;74;21031;-52
2021/07/08 06:55:39;;;;;;;8.18;4.00;;;27.70;65.50;;;;;;1943059;74;21031;-49
2021/07/08 06:58:08;;;;;;;6.33;3.92;;;27.70;65.10;;;;;;1943054;74;21088;-51
2021/07/08 07:00:38;;;;;;;8.18;5.15;;;27.80;65.50;;;;;;1942982;74;21059;-52
2021/07/08 07:03:08;;;;;;;6.75;3.83;;;27.90;65.40;;;;;;1943136;74;21038;-51
2021/07/08 07:05:37;;;;;;;7.85;3.95;;;28.00;64.40;;;;;;1943120;74;21074;-51
2021/07/08 07:08:06;;;;;;;4.62;4.10;;;28.10;64.40;;;;;;1943119;74;21023;-49
2021/07/08 07:10:36;;;;;;;4.80;3.83;;;28.10;64.60;;;;;;1942955;74;20999;-49
2021/07/08 07:13:08;;;;;;;6.60;4.22;;;28.20;64.50;;;;;;1943036;73;21101;-50
2021/07/08 07:15:43;;;;;;;6.17;4.00;;;28.20;63.80;;;;;;1943239;74;21097;-51
2021/07/08 07:18:09;;;;;;;8.20;4.33;;;28.30;63.70;;;;;;1938379;74;21054;-52
2021/07/08 07:20:39;;;;;;;9.65;4.83;;;28.30;64.00;;;;;;1935553;74;20995;-50
2021/07/08 07:23:09;;;;;;;11.03;5.50;;;28.40;62.80;;;;;;1935589;74;21027;-51
2021/07/08 07:25:41;;;;;;;6.62;4.37;;;28.40;62.10;;;;;;1935539;74;21039;-49
2021/07/08 07:28:11;;;;;;;8.58;3.98;;;28.40;61.20;;;;;;1935570;74;21027;-51
2021/07/08 07:30:41;;;;;;;7.03;5.17;;;28.50;61.60;;;;;;1935609;74;20996;-52
2021/07/08 07:33:11;;;;;;;5.70;3.50;;;28.50;60.30;;;;;;1935446;74;21084;-48
2021/07/08 07:35:41;;;;;;;10.40;3.60;;;28.50;60.20;;;;;;1934051;74;21086;-50
2021/07/08 07:38:13;;;;;;;7.90;3.22;;;28.60;59.70;;;;;;1935014;74;21069;-49
2021/07/08 07:40:43;;;;;;;6.55;3.72;;;28.60;59.10;;;;;;1935039;74;21519;-49
2021/07/08 07:43:13;;;;;;;6.35;2.92;;;28.70;59.10;;;;;;1934978;74;21015;-49
2021/07/08 07:45:43;;;;;;;4.55;3.02;;;28.80;58.60;;;;;;1934987;74;21095;-47
2021/07/08 07:48:12;;;;;;;7.90;3.98;;;28.90;58.50;;;;;;1934921;74;21051;-49
2021/07/08 07:50:42;;;;;;;16.02;9.00;;;29.00;58.30;;;;;;1934742;74;21008;-47
2021/07/08 07:53:11;;;;;;;6.20;3.85;;;29.10;58.80;;;;;;1935004;74;21019;-47
2021/07/08 07:55:41;;;;;;;4.42;3.87;;;29.20;58.40;;;;;;1934863;74;21156;-51
2021/07/08 07:58:10;;;;;;;8.68;4.40;;;29.30;56.80;;;;;;1934898;74;21027;-48
2021/07/08 08:00:40;;;;;;;5.67;3.60;;;29.40;56.00;;;;;;1934888;74;21016;-49
2021/07/08 08:03:09;;;;;;;4.28;2.60;;;29.40;56.20;;;;;;1934849;74;21019;-49
2021/07/08 08:05:49;;;;;;;7.50;3.00;;;29.50;54.90;;;;;;1934772;74;21035;-51
2021/07/08 08:08:29;;;;;;;6.17;3.70;;;29.50;53.80;;;;;;1931687;74;20999;-50
2021/07/08 08:10:59;;;;;;;6.20;3.80;;;29.50;54.80;;;;;;1935020;74;21011;-50
2021/07/08 08:13:29;;;;;;;6.95;3.40;;;29.50;54.10;;;;;;1935006;74;21462;-46
2021/07/08 08:15:58;;;;;;;4.95;3.42;;;29.50;53.90;;;;;;1934970;74;21059;-47
2021/07/08 08:18:28;;;;;;;7.03;3.22;;;29.50;53.30;;;;;;1934614;74;21114;-48
2021/07/08 08:20:57;;;;;;;6.45;3.40;;;29.50;52.60;;;;;;1934252;73;21047;-50
2021/07/08 08:23:27;;;;;;;7.30;3.15;;;29.60;51.90;;;;;;1935090;74;21110;-46
2021/07/08 08:25:56;;;;;;;4.45;3.08;;;29.50;51.90;;;;;;1934765;74;21098;-51
2021/07/08 08:28:25;;;;;;;4.92;3.17;;;29.50;51.10;;;;;;1934964;74;21015;-48
2021/07/08 08:30:55;;;;;;;3.92;2.90;;;29.50;50.40;;;;;;1935007;74;21015;-51
2021/07/08 08:33:25;;;;;;;7.65;3.02;;;29.60;49.60;;;;;;1934828;74;21011;-52
2021/07/08 08:35:55;;;;;;;11.43;2.70;;;29.70;49.20;;;;;;1934940;74;21148;-47
2021/07/08 08:38:24;;;;;;;12.03;2.70;;;29.90;49.20;;;;;;1934784;74;21073;-51
2021/07/08 08:40:55;;;;;;;6.15;2.77;;;29.90;47.30;;;;;;1934757;74;21019;-49
2021/07/08 08:43:24;;;;;;;4.78;2.50;;;29.90;49.00;;;;;;1934850;74;21559;-49
2021/07/08 08:45:54;;;;;;;6.25;2.87;;;30.00;48.70;;;;;;1934843;74;21059;-50
2021/07/08 08:48:23;;;;;;;4.15;2.83;;;30.10;48.10;;;;;;1934784;74;21090;-51
2021/07/08 08:50:53;;;;;;;3.58;2.40;;;30.20;48.30;;;;;;1935138;74;21630;-50
2021/07/08 08:53:22;;;;;;;3.52;2.80;;;30.30;46.90;;;;;;1934863;74;21136;-50
2021/07/08 08:55:52;;;;;;;7.20;2.80;;;30.30;45.90;;;;;;1934635;74;21477;-47
2021/07/08 08:58:22;;;;;;;6.72;2.90;;;30.30;46.60;;;;;;1934903;74;21070;-48
2021/07/08 09:00:53;;;;;;;5.80;2.52;;;30.40;46.00;;;;;;1934967;74;21011;-50
2021/07/08 09:03:27;;;;;;;6.72;2.72;;;30.40;44.20;;;;;;1931609;74;21075;-45
2021/07/08 09:06:06;;;;;;;2.10;1.90;;;30.50;44.10;;;;;;1911238;74;21107;-48
2021/07/08 09:08:39;;;;;;;4.40;1.95;;;30.50;42.40;;;;;;1907402;74;21132;-45
2021/07/08 09:11:23;;;;;;;2.90;2.30;;;30.50;41.10;;;;;;1907424;74;20991;-46
2021/07/08 09:14:01;;;;;;;5.17;2.25;;;30.50;41.60;;;;;;1903374;74;21165;-49
2021/07/08 09:16:33;;;;;;;5.45;2.10;;;30.60;41.90;;;;;;1904316;75;20987;-49
2021/07/08 09:19:17;;;;;;;6.12;2.12;;;30.70;40.60;;;;;;1904223;75;21610;-46
2021/07/08 09:21:53;;;;;;;7.25;2.33;;;30.70;40.30;;;;;;1904389;74;21539;-49
2021/07/08 09:24:29;;;;;;;5.67;2.10;;;30.80;38.70;;;;;;1904471;75;21019;-47
2021/07/08 09:27:08;;;;;;;3.40;1.92;;;30.90;38.60;;;;;;1904437;75;21521;-49
2021/07/08 09:29:41;;;;;;;3.77;2.15;;;30.90;38.30;;;;;;1904417;75;21078;-47
2021/07/08 09:32:16;;;;;;;8.65;2.85;;;30.90;36.50;;;;;;1904397;75;21012;-50
2021/07/08 09:34:50;;;;;;;2.70;2.17;;;31.00;38.70;;;;;;1904237;75;21147;-51
2021/07/08 09:37:29;;;;;;;5.70;2.50;;;31.00;37.20;;;;;;1904406;74;21082;-50
2021/07/08 09:40:03;;;;;;;11.12;3.37;;;31.00;38.00;;;;;;1904464;75;21544;-50
2021/07/08 09:42:41;;;;;;;5.97;2.42;;;31.00;39.20;;;;;;1904734;75;21026;-46
2021/07/08 09:45:18;;;;;;;3.55;1.90;;;31.10;39.60;;;;;;1904533;75;21074;-51
2021/07/08 09:47:48;;;;;;;5.53;2.22;;;31.20;40.00;;;;;;1904447;74;21116;-48
2021/07/08 09:50:32;;;;;;;5.10;2.30;;;31.30;39.00;;;;;;1904439;74;21141;-50
2021/07/08 09:53:14;;;;;;;4.85;2.22;;;31.30;39.50;;;;;;1908326;74;21122;-49
2021/07/08 09:56:00;;;;;;;4.97;2.30;;;31.40;38.90;;;;;;1913649;74;20999;-48
2021/07/08 09:58:26;;;;;;;4.45;2.08;;;31.40;39.00;;;;;;1899996;75;21030;-51
2021/07/08 10:00:56;;;;;;;4.35;2.20;;;31.40;37.50;;;;;;1901378;75;21501;-50
2021/07/08 10:03:26;;;;;;;5.12;2.20;;;31.40;37.60;;;;;;1901169;75;21078;-48
2021/07/08 10:05:55;;;;;;;4.20;2.45;;;31.30;38.30;;;;;;1901288;75;21065;-51
2021/07/08 10:08:25;;;;;;;5.80;3.37;;;31.30;37.80;;;;;;1901514;74;21149;-50
2021/07/08 10:10:54;;;;;;;6.45;2.52;;;31.30;37.10;;;;;;1902640;74;21085;-49
2021/07/08 10:13:24;;;;;;;3.55;2.40;;;31.40;38.00;;;;;;1903746;74;21021;-46
2021/07/08 10:15:54;;;;;;;4.78;2.30;;;31.40;38.40;;;;;;1901973;74;21025;-48
2021/07/08 10:18:24;;;;;;;5.03;2.37;;;31.50;37.10;;;;;;1906724;74;21015;-52
2021/07/08 10:20:55;;;;;;;7.47;2.92;;;31.40;38.30;;;;;;1901507;75;21091;-51
2021/07/08 10:23:27;;;;;;;5.67;2.08;;;31.40;38.50;;;;;;1916966;73;21188;-51
2021/07/08 10:25:56;;;;;;;3.30;2.35;;;31.40;37.30;;;;;;1924690;73;21167;-52
2021/07/08 10:28:26;;;;;;;11.83;2.60;;;31.40;36.60;;;;;;1930606;73;21014;-47
2021/07/08 10:30:56;;;;;;;5.33;2.10;;;31.40;37.60;;;;;;1923354;74;21042;-50
2021/07/08 10:33:26;;;;;;;4.47;2.05;;;31.40;37.50;;;;;;1923752;73;21020;-53
2021/07/08 10:35:56;;;;;;;7.83;2.40;;;31.50;36.40;;;;;;1923850;73;21070;-50
2021/07/08 10:38:34;;;;;;;4.20;1.87;;;31.50;37.10;;;;;;1928181;73;21089;-49
2021/07/08 10:41:12;;;;;;;4.05;1.82;;;31.60;35.80;;;;;;1930350;73;21069;-46
2021/07/08 10:43:43;;;;;;;5.25;3.37;;;31.60;35.70;;;;;;1932302;73;21064;-56
2021/07/08 10:46:17;;;;;;;7.60;2.37;;;31.70;36.30;;;;;;1929558;73;21010;-51
2021/07/08 10:48:51;;;;;;;7.08;2.30;;;31.70;35.80;;;;;;1932441;73;21011;-51
2021/07/08 10:51:31;;;;;;;4.72;2.30;;;31.80;36.60;;;;;;1924327;73;21030;-47
2021/07/08 10:54:02;;;;;;;4.12;3.22;;;31.90;37.10;;;;;;1923227;74;21182;-52
2021/07/08 10:56:35;;;;;;;4.17;2.72;;;31.90;36.10;;;;;;1918507;74;21535;-53
2021/07/08 10:59:15;;;;;;;6.00;1.98;;;31.90;36.40;;;;;;1947087;73;21083;-50
2021/07/08 11:01:46;;;;;;;4.12;2.08;;;31.90;34.60;;;;;;1932870;73;21062;-51
2021/07/08 11:04:16;;;;;;;10.23;2.47;;;31.80;35.60;;;;;;1928282;73;21027;-51
2021/07/08 11:06:46;;;;;;;4.05;2.22;;;31.90;36.10;;;;;;1930760;73;21067;-49
2021/07/08 11:09:19;;;;;;;4.25;2.22;;;31.90;35.30;;;;;;1957581;73;21113;-49
2021/07/08 11:11:51;;;;;;;11.12;2.58;;;31.90;35.80;;;;;;1957768;73;20994;-51
2021/07/08 11:14:26;;;;;;;5.08;2.12;;;31.90;35.60;;;;;;1939738;73;21117;-51
2021/07/08 11:17:04;;;;;;;5.37;1.98;;;31.90;35.10;;;;;;1924637;73;21026;-49
2021/07/08 11:19:37;;;;;;;3.20;2.30;;;31.90;34.60;;;;;;1929168;73;21083;-48
2021/07/08 11:22:17;;;;;;;6.70;2.20;;;31.90;34.60;;;;;;1929353;73;21461;-51
2021/07/08 11:24:51;;;;;;;3.62;2.12;;;31.90;35.20;;;;;;1923412;74;21121;-49
2021/07/08 11:27:24;;;;;;;4.22;2.00;;;31.90;35.50;;;;;;1927772;73;20976;-48
2021/07/08 11:29:58;;;;;;;10.03;2.25;;;32.00;35.40;;;;;;1939013;73;21046;-51
2021/07/08 11:32:37;;;;;;;6.35;2.58;;;32.00;34.90;;;;;;1958788;73;21477;-51
2021/07/08 11:38:05;;;;;;;6.53;1.92;;;32.00;35.40;;;;;;1958663;73;21034;-50
2021/07/08 11:40:44;;;;;;;4.12;1.92;;;32.00;33.10;;;;;;1958668;73;21081;-50
2021/07/08 11:43:22;;;;;;;7.97;2.40;;;32.00;34.40;;;;;;1958346;73;21047;-48
2021/07/08 11:45:56;;;;;;;2.77;2.20;;;32.00;35.20;;;;;;1958509;73;21018;-49
2021/07/08 11:48:28;;;;;;;5.03;2.00;;;32.00;34.50;;;;;;1958623;73;21080;-50
2021/07/08 11:50:58;;;;;;;7.00;2.08;;;32.00;34.20;;;;;;1957590;73;21112;-49
2021/07/08 11:53:28;;;;;;;4.25;1.65;;;32.00;34.50;;;;;;1958594;73;21022;-49
2021/07/08 11:56:00;;;;;;;4.65;2.05;;;32.00;35.10;;;;;;1958500;73;21014;-50
2021/07/08 11:58:32;;;;;;;6.05;2.20;;;32.00;35.10;;;;;;1958171;73;21065;-51
2021/07/08 12:01:07;;;;;;;8.10;2.87;;;32.00;34.70;;;;;;1957543;73;21038;-52
2021/07/08 12:03:43;;;;;;;3.15;1.90;;;32.10;34.40;;;;;;1957104;73;21014;-51
2021/07/08 12:06:14;;;;;;;6.70;2.80;;;32.10;34.00;;;;;;1958223;73;21046;-51
2021/07/08 12:08:53;;;;;;;2.62;1.65;;;32.10;34.30;;;;;;1955336;73;21046;-51
2021/07/08 12:11:36;;;;;;;1.90;1.70;;;32.10;33.60;;;;;;1952165;73;21054;-52
2021/07/08 12:14:10;;;;;;;3.10;1.95;;;32.10;34.20;;;;;;1958568;73;20995;-53
2021/07/08 12:16:41;;;;;;;6.50;2.30;;;32.20;34.70;;;;;;1958571;73;21049;-53
2021/07/08 12:19:27;;;;;;;3.02;2.00;;;32.20;34.90;;;;;;1958412;73;21120;-50
2021/07/08 12:21:58;;;;;;;2.77;1.80;;;32.20;34.00;;;;;;1955671;73;21026;-53
2021/07/08 12:24:29;;;;;;;2.87;1.75;;;32.20;34.50;;;;;;1946687;73;21051;-51
2021/07/08 12:27:00;;;;;;;2.40;1.57;;;32.20;33.90;;;;;;1935509;74;21047;-52
2021/07/08 12:29:34;;;;;;;3.45;1.70;;;32.20;33.10;;;;;;1935458;74;21104;-53
2021/07/08 12:32:09;;;;;;;7.25;2.20;;;32.10;32.90;;;;;;1935742;74;20995;-52
2021/07/08 12:34:49;;;;;;;5.97;2.30;;;32.10;33.90;;;;;;1935546;74;21128;-52
2021/07/08 12:37:17;;;;;;;3.15;2.22;;;32.10;33.90;;;;;;1934254;74;21051;-51
2021/07/08 12:39:48;;;;;;;5.37;2.08;;;32.10;33.90;;;;;;1935622;74;21065;-52
2021/07/08 12:42:19;;;;;;;5.22;2.17;;;32.10;33.60;;;;;;1931081;74;21523;-49
2021/07/08 12:44:56;;;;;;;8.88;2.80;;;32.10;34.40;;;;;;1935648;74;21027;-53
2021/07/08 12:47:26;;;;;;;6.42;2.08;;;32.10;34.40;;;;;;1935689;74;21042;-52
2021/07/08 12:49:55;;;;;;;3.27;1.57;;;32.20;34.10;;;;;;1935619;74;21000;-53
2021/07/08 12:52:25;;;;;;;3.85;2.02;;;32.20;32.80;;;;;;1935692;74;20999;-52
2021/07/08 12:54:54;;;;;;;2.40;1.70;;;32.20;33.10;;;;;;1935717;74;21080;-52
2021/07/08 12:57:24;;;;;;;6.90;2.27;;;32.20;32.90;;;;;;1935682;74;21055;-52
2021/07/08 13:00:01;;;;;;;6.17;2.22;;;32.20;32.60;;;;;;1935565;74;21031;-52
2021/07/08 13:02:31;;;;;;;8.58;2.67;;;32.20;32.30;;;;;;1935700;74;21074;-52